sensor_id;sensor_type;location;lat;lon;timestamp;P1;durP1;ratioP1;P2;durP2;ratioP2
45762;SDS011;37512;52.408;13.356;2024-03-06T00:02:04;27.23;;;15.60;;
45762;SDS011;37512;52.408;13.356;2024-03-06T00:06:06;28.88;;;16.90;;
45762;SDS011;37512;52.408;13.356;2024-03-06T00:10:07;23.45;;;15.65;;
45762;SDS011;37512;52.408;13.356;2024-03-06T00:14:09;30.15;;;16.48;;
45762;SDS011;37512;52.408;13.356;2024-03-06T00:18:14;31.80;;;16.25;;
45762;SDS011;37512;52.408;13.356;2024-03-06T00:22:16;31.60;;;15.60;;
45762;SDS011;37512;52.408;13.356;2024-03-06T00:26:22;26.50;;;16.55;;
45762;SDS011;37512;52.408;13.356;2024-03-06T00:30:24;26.40;;;16.90;;
45762;SDS011;37512;52.408;13.356;2024-03-06T00:34:25;30.58;;;18.60;;
45762;SDS011;37512;52.408;13.356;2024-03-06T00:38:28;25.80;;;16.10;;
45762;SDS011;37512;52.408;13.356;2024-03-06T00:42:29;29.27;;;17.00;;
45762;SDS011;37512;52.408;13.356;2024-03-06T00:46:31;32.15;;;16.17;;
45762;SDS011;37512;52.408;13.356;2024-03-06T00:50:32;28.33;;;16.77;;
45762;SDS011;37512;52.408;13.356;2024-03-06T00:54:34;30.50;;;17.42;;
45762;SDS011;37512;52.408;13.356;2024-03-06T00:58:36;31.55;;;18.23;;
45762;SDS011;37512;52.408;13.356;2024-03-06T01:02:38;32.03;;;18.30;;
45762;SDS011;37512;52.408;13.356;2024-03-06T01:06:41;30.25;;;18.52;;
45762;SDS011;37512;52.408;13.356;2024-03-06T01:10:43;30.25;;;17.10;;
45762;SDS011;37512;52.408;13.356;2024-03-06T01:14:45;31.20;;;15.75;;
45762;SDS011;37512;52.408;13.356;2024-03-06T01:18:46;31.00;;;17.65;;
45762;SDS011;37512;52.408;13.356;2024-03-06T01:22:48;27.83;;;15.18;;
45762;SDS011;37512;52.408;13.356;2024-03-06T01:26:50;29.20;;;17.45;;
45762;SDS011;37512;52.408;13.356;2024-03-06T01:30:51;29.33;;;15.88;;
45762;SDS011;37512;52.408;13.356;2024-03-06T01:34:53;30.02;;;16.77;;
45762;SDS011;37512;52.408;13.356;2024-03-06T01:38:54;25.73;;;15.75;;
45762;SDS011;37512;52.408;13.356;2024-03-06T01:42:56;30.05;;;16.73;;
45762;SDS011;37512;52.408;13.356;2024-03-06T01:46:57;31.27;;;17.23;;
45762;SDS011;37512;52.408;13.356;2024-03-06T01:51:01;28.85;;;17.02;;
45762;SDS011;37512;52.408;13.356;2024-03-06T01:55:06;33.75;;;18.08;;
45762;SDS011;37512;52.408;13.356;2024-03-06T01:59:10;29.48;;;17.08;;
45762;SDS011;37512;52.408;13.356;2024-03-06T02:03:29;29.50;;;17.00;;
45762;SDS011;37512;52.408;13.356;2024-03-06T02:07:33;29.73;;;17.40;;
45762;SDS011;37512;52.408;13.356;2024-03-06T02:11:36;34.35;;;17.65;;
45762;SDS011;37512;52.408;13.356;2024-03-06T02:15:37;30.98;;;18.15;;
45762;SDS011;37512;52.408;13.356;2024-03-06T02:19:40;33.78;;;16.75;;
45762;SDS011;37512;52.408;13.356;2024-03-06T02:23:42;28.10;;;17.45;;
45762;SDS011;37512;52.408;13.356;2024-03-06T02:27:44;32.00;;;15.50;;
45762;SDS011;37512;52.408;13.356;2024-03-06T02:31:45;33.10;;;17.08;;
45762;SDS011;37512;52.408;13.356;2024-03-06T02:35:47;36.20;;;17.00;;
45762;SDS011;37512;52.408;13.356;2024-03-06T02:39:48;30.50;;;16.48;;
45762;SDS011;37512;52.408;13.356;2024-03-06T02:43:50;31.60;;;14.90;;
45762;SDS011;37512;52.408;13.356;2024-03-06T02:47:51;30.52;;;16.20;;
45762;SDS011;37512;52.408;13.356;2024-03-06T02:51:53;27.13;;;16.30;;
45762;SDS011;37512;52.408;13.356;2024-03-06T02:55:55;26.35;;;15.88;;
45762;SDS011;37512;52.408;13.356;2024-03-06T02:59:57;31.10;;;15.73;;
45762;SDS011;37512;52.408;13.356;2024-03-06T03:03:59;32.05;;;17.35;;
45762;SDS011;37512;52.408;13.356;2024-03-06T03:08:01;30.58;;;16.17;;
45762;SDS011;37512;52.408;13.356;2024-03-06T03:12:05;27.55;;;16.70;;
45762;SDS011;37512;52.408;13.356;2024-03-06T03:16:07;26.15;;;15.68;;
45762;SDS011;37512;52.408;13.356;2024-03-06T03:20:16;27.20;;;16.83;;
45762;SDS011;37512;52.408;13.356;2024-03-06T03:24:18;37.22;;;18.90;;
45762;SDS011;37512;52.408;13.356;2024-03-06T03:28:21;32.15;;;16.27;;
45762;SDS011;37512;52.408;13.356;2024-03-06T03:32:23;30.90;;;17.25;;
45762;SDS011;37512;52.408;13.356;2024-03-06T03:36:24;31.63;;;16.90;;
45762;SDS011;37512;52.408;13.356;2024-03-06T03:40:26;31.73;;;17.80;;
45762;SDS011;37512;52.408;13.356;2024-03-06T03:44:27;36.45;;;19.42;;
45762;SDS011;37512;52.408;13.356;2024-03-06T03:48:29;33.67;;;19.85;;
45762;SDS011;37512;52.408;13.356;2024-03-06T03:52:31;29.75;;;17.52;;
45762;SDS011;37512;52.408;13.356;2024-03-06T03:56:34;33.85;;;18.75;;
45762;SDS011;37512;52.408;13.356;2024-03-06T04:00:36;35.42;;;19.25;;
45762;SDS011;37512;52.408;13.356;2024-03-06T04:04:39;40.42;;;19.38;;
45762;SDS011;37512;52.408;13.356;2024-03-06T04:08:41;39.58;;;21.25;;
45762;SDS011;37512;52.408;13.356;2024-03-06T04:12:42;33.10;;;18.83;;
45762;SDS011;37512;52.408;13.356;2024-03-06T04:16:45;62.42;;;20.60;;
45762;SDS011;37512;52.408;13.356;2024-03-06T04:20:47;37.50;;;20.60;;
45762;SDS011;37512;52.408;13.356;2024-03-06T04:24:49;35.25;;;18.20;;
45762;SDS011;37512;52.408;13.356;2024-03-06T04:28:50;39.63;;;19.13;;
45762;SDS011;37512;52.408;13.356;2024-03-06T04:32:52;35.75;;;19.25;;
45762;SDS011;37512;52.408;13.356;2024-03-06T04:36:54;40.05;;;20.50;;
45762;SDS011;37512;52.408;13.356;2024-03-06T04:40:55;34.28;;;18.95;;
45762;SDS011;37512;52.408;13.356;2024-03-06T04:44:57;36.80;;;20.63;;
45762;SDS011;37512;52.408;13.356;2024-03-06T04:48:58;37.33;;;20.38;;
45762;SDS011;37512;52.408;13.356;2024-03-06T04:53:00;41.03;;;19.92;;
45762;SDS011;37512;52.408;13.356;2024-03-06T04:57:01;39.17;;;20.15;;
45762;SDS011;37512;52.408;13.356;2024-03-06T05:01:06;35.10;;;21.02;;
45762;SDS011;37512;52.408;13.356;2024-03-06T05:05:11;33.58;;;19.70;;
45762;SDS011;37512;52.408;13.356;2024-03-06T05:09:31;62.10;;;20.25;;
45762;SDS011;37512;52.408;13.356;2024-03-06T05:13:49;46.88;;;20.77;;
45762;SDS011;37512;52.408;13.356;2024-03-06T05:18:08;38.33;;;18.65;;
45762;SDS011;37512;52.408;13.356;2024-03-06T05:22:28;63.50;;;20.83;;
45762;SDS011;37512;52.408;13.356;2024-03-06T05:26:47;53.58;;;21.65;;
45762;SDS011;37512;52.408;13.356;2024-03-06T05:31:15;69.78;;;21.92;;
45762;SDS011;37512;52.408;13.356;2024-03-06T05:35:38;62.45;;;23.98;;
45762;SDS011;37512;52.408;13.356;2024-03-06T05:39:57;89.00;;;24.52;;
45762;SDS011;37512;52.408;13.356;2024-03-06T05:44:16;54.40;;;19.55;;
45762;SDS011;37512;52.408;13.356;2024-03-06T05:48:35;50.50;;;20.67;;
45762;SDS011;37512;52.408;13.356;2024-03-06T05:52:54;51.97;;;20.27;;
45762;SDS011;37512;52.408;13.356;2024-03-06T05:57:13;68.07;;;21.40;;
45762;SDS011;37512;52.408;13.356;2024-03-06T06:01:32;58.20;;;21.00;;
45762;SDS011;37512;52.408;13.356;2024-03-06T06:05:34;36.25;;;19.27;;
45762;SDS011;37512;52.408;13.356;2024-03-06T06:09:37;41.20;;;19.95;;
45762;SDS011;37512;52.408;13.356;2024-03-06T06:13:40;29.48;;;18.40;;
45762;SDS011;37512;52.408;13.356;2024-03-06T06:17:41;62.30;;;20.73;;
45762;SDS011;37512;52.408;13.356;2024-03-06T06:21:46;34.85;;;18.95;;
45762;SDS011;37512;52.408;13.356;2024-03-06T06:25:50;37.42;;;21.15;;
45762;SDS011;37512;52.408;13.356;2024-03-06T06:29:52;43.60;;;21.00;;
45762;SDS011;37512;52.408;13.356;2024-03-06T06:33:56;35.80;;;19.90;;
45762;SDS011;37512;52.408;13.356;2024-03-06T06:37:59;37.15;;;20.55;;
45762;SDS011;37512;52.408;13.356;2024-03-06T06:42:01;41.88;;;20.98;;
45762;SDS011;37512;52.408;13.356;2024-03-06T06:46:04;37.92;;;19.80;;
45762;SDS011;37512;52.408;13.356;2024-03-06T06:50:07;49.17;;;21.10;;
45762;SDS011;37512;52.408;13.356;2024-03-06T06:54:10;47.60;;;20.63;;
45762;SDS011;37512;52.408;13.356;2024-03-06T06:58:12;35.22;;;19.48;;
45762;SDS011;37512;52.408;13.356;2024-03-06T07:02:13;63.97;;;22.75;;
45762;SDS011;37512;52.408;13.356;2024-03-06T07:06:16;44.40;;;20.80;;
45762;SDS011;37512;52.408;13.356;2024-03-06T07:10:17;54.78;;;22.55;;
45762;SDS011;37512;52.408;13.356;2024-03-06T07:14:20;38.83;;;20.67;;
45762;SDS011;37512;52.408;13.356;2024-03-06T07:18:21;45.28;;;21.98;;
45762;SDS011;37512;52.408;13.356;2024-03-06T07:22:23;43.90;;;21.98;;
45762;SDS011;37512;52.408;13.356;2024-03-06T07:26:26;39.38;;;21.80;;
45762;SDS011;37512;52.408;13.356;2024-03-06T07:30:30;44.67;;;22.98;;
45762;SDS011;37512;52.408;13.356;2024-03-06T07:34:32;37.42;;;21.92;;
45762;SDS011;37512;52.408;13.356;2024-03-06T07:38:34;38.40;;;20.65;;
45762;SDS011;37512;52.408;13.356;2024-03-06T07:42:36;40.50;;;21.15;;
45762;SDS011;37512;52.408;13.356;2024-03-06T07:46:39;39.08;;;21.02;;
45762;SDS011;37512;52.408;13.356;2024-03-06T07:50:40;40.55;;;21.60;;
45762;SDS011;37512;52.408;13.356;2024-03-06T07:54:43;38.88;;;20.77;;
45762;SDS011;37512;52.408;13.356;2024-03-06T07:58:44;35.20;;;18.20;;
45762;SDS011;37512;52.408;13.356;2024-03-06T08:02:46;35.65;;;18.58;;
45762;SDS011;37512;52.408;13.356;2024-03-06T08:06:51;34.80;;;19.17;;
45762;SDS011;37512;52.408;13.356;2024-03-06T08:10:56;46.47;;;20.45;;
45762;SDS011;37512;52.408;13.356;2024-03-06T08:14:58;31.30;;;18.30;;
45762;SDS011;37512;52.408;13.356;2024-03-06T08:19:00;31.23;;;18.05;;
45762;SDS011;37512;52.408;13.356;2024-03-06T08:23:02;35.35;;;16.70;;
45762;SDS011;37512;52.408;13.356;2024-03-06T08:27:04;28.02;;;16.75;;
45762;SDS011;37512;52.408;13.356;2024-03-06T08:31:05;30.08;;;16.45;;
45762;SDS011;37512;52.408;13.356;2024-03-06T08:35:09;30.75;;;16.27;;
45762;SDS011;37512;52.408;13.356;2024-03-06T08:39:20;26.00;;;14.98;;
45762;SDS011;37512;52.408;13.356;2024-03-06T08:43:22;23.38;;;12.68;;
45762;SDS011;37512;52.408;13.356;2024-03-06T08:47:23;24.88;;;13.68;;
45762;SDS011;37512;52.408;13.356;2024-03-06T08:51:26;25.20;;;15.38;;
45762;SDS011;37512;52.408;13.356;2024-03-06T08:55:27;22.38;;;13.52;;
45762;SDS011;37512;52.408;13.356;2024-03-06T08:59:31;21.00;;;13.13;;
45762;SDS011;37512;52.408;13.356;2024-03-06T09:03:33;26.30;;;12.98;;
45762;SDS011;37512;52.408;13.356;2024-03-06T09:07:35;26.48;;;14.02;;
45762;SDS011;37512;52.408;13.356;2024-03-06T09:11:39;20.98;;;12.68;;
45762;SDS011;37512;52.408;13.356;2024-03-06T09:15:41;21.23;;;12.68;;
45762;SDS011;37512;52.408;13.356;2024-03-06T09:19:42;19.95;;;11.77;;
45762;SDS011;37512;52.408;13.356;2024-03-06T09:24:04;19.73;;;11.90;;
45762;SDS011;37512;52.408;13.356;2024-03-06T09:28:06;18.05;;;10.52;;
45762;SDS011;37512;52.408;13.356;2024-03-06T09:32:09;25.65;;;11.18;;
45762;SDS011;37512;52.408;13.356;2024-03-06T09:36:17;24.00;;;11.00;;
45762;SDS011;37512;52.408;13.356;2024-03-06T09:40:22;20.83;;;11.45;;
45762;SDS011;37512;52.408;13.356;2024-03-06T09:44:24;16.30;;;8.80;;
45762;SDS011;37512;52.408;13.356;2024-03-06T09:48:26;17.90;;;9.93;;
45762;SDS011;37512;52.408;13.356;2024-03-06T09:52:28;20.92;;;10.10;;
45762;SDS011;37512;52.408;13.356;2024-03-06T09:56:30;28.60;;;10.32;;
45762;SDS011;37512;52.408;13.356;2024-03-06T10:00:33;15.10;;;9.80;;
45762;SDS011;37512;52.408;13.356;2024-03-06T10:04:36;19.98;;;8.88;;
45762;SDS011;37512;52.408;13.356;2024-03-06T10:08:41;16.38;;;9.15;;
45762;SDS011;37512;52.408;13.356;2024-03-06T10:12:47;12.85;;;8.15;;
45762;SDS011;37512;52.408;13.356;2024-03-06T10:16:52;14.20;;;8.00;;
45762;SDS011;37512;52.408;13.356;2024-03-06T10:20:59;14.20;;;8.98;;
45762;SDS011;37512;52.408;13.356;2024-03-06T10:25:02;12.70;;;8.45;;
45762;SDS011;37512;52.408;13.356;2024-03-06T10:29:06;12.57;;;9.07;;
45762;SDS011;37512;52.408;13.356;2024-03-06T10:33:07;12.63;;;8.25;;
45762;SDS011;37512;52.408;13.356;2024-03-06T10:37:09;12.48;;;8.48;;
45762;SDS011;37512;52.408;13.356;2024-03-06T10:41:12;13.10;;;9.32;;
45762;SDS011;37512;52.408;13.356;2024-03-06T10:45:19;12.57;;;8.93;;
45762;SDS011;37512;52.408;13.356;2024-03-06T10:49:25;11.30;;;8.80;;
45762;SDS011;37512;52.408;13.356;2024-03-06T10:53:29;12.27;;;7.53;;
45762;SDS011;37512;52.408;13.356;2024-03-06T10:57:32;10.85;;;6.85;;
45762;SDS011;37512;52.408;13.356;2024-03-06T11:01:34;11.85;;;7.72;;
45762;SDS011;37512;52.408;13.356;2024-03-06T11:05:36;12.35;;;7.05;;
45762;SDS011;37512;52.408;13.356;2024-03-06T11:09:41;11.13;;;7.30;;
45762;SDS011;37512;52.408;13.356;2024-03-06T11:13:43;10.50;;;6.63;;
45762;SDS011;37512;52.408;13.356;2024-03-06T11:17:44;12.63;;;6.93;;
45762;SDS011;37512;52.408;13.356;2024-03-06T11:21:46;9.50;;;6.13;;
45762;SDS011;37512;52.408;13.356;2024-03-06T11:30:09;9.07;;;6.43;;
45762;SDS011;37512;52.408;13.356;2024-03-06T11:34:15;9.73;;;6.00;;
45762;SDS011;37512;52.408;13.356;2024-03-06T11:38:17;8.50;;;6.07;;
45762;SDS011;37512;52.408;13.356;2024-03-06T11:42:32;11.80;;;6.93;;
45762;SDS011;37512;52.408;13.356;2024-03-06T11:46:50;12.68;;;8.10;;
45762;SDS011;37512;52.408;13.356;2024-03-06T11:51:02;12.05;;;7.07;;
45762;SDS011;37512;52.408;13.356;2024-03-06T11:55:04;10.57;;;6.63;;
45762;SDS011;37512;52.408;13.356;2024-03-06T11:59:07;12.20;;;6.65;;
45762;SDS011;37512;52.408;13.356;2024-03-06T12:03:11;9.60;;;6.80;;
45762;SDS011;37512;52.408;13.356;2024-03-06T12:07:13;9.85;;;6.88;;
45762;SDS011;37512;52.408;13.356;2024-03-06T12:11:14;6.97;;;5.30;;
45762;SDS011;37512;52.408;13.356;2024-03-06T12:15:16;11.45;;;6.30;;
45762;SDS011;37512;52.408;13.356;2024-03-06T12:19:22;10.48;;;6.85;;
45762;SDS011;37512;52.408;13.356;2024-03-06T12:23:24;10.07;;;6.32;;
45762;SDS011;37512;52.408;13.356;2024-03-06T12:27:27;12.15;;;8.07;;
45762;SDS011;37512;52.408;13.356;2024-03-06T12:31:29;12.18;;;7.80;;
45762;SDS011;37512;52.408;13.356;2024-03-06T12:35:31;11.75;;;8.05;;
45762;SDS011;37512;52.408;13.356;2024-03-06T12:39:38;10.18;;;7.82;;
45762;SDS011;37512;52.408;13.356;2024-03-06T12:43:44;11.63;;;8.95;;
45762;SDS011;37512;52.408;13.356;2024-03-06T12:47:48;16.63;;;11.55;;
45762;SDS011;37512;52.408;13.356;2024-03-06T12:51:51;15.40;;;10.68;;
45762;SDS011;37512;52.408;13.356;2024-03-06T12:55:56;13.32;;;9.90;;
45762;SDS011;37512;52.408;13.356;2024-03-06T13:00:00;18.83;;;11.10;;
45762;SDS011;37512;52.408;13.356;2024-03-06T13:04:02;13.43;;;9.70;;
45762;SDS011;37512;52.408;13.356;2024-03-06T13:08:07;13.88;;;10.15;;
45762;SDS011;37512;52.408;13.356;2024-03-06T13:12:09;18.45;;;10.23;;
45762;SDS011;37512;52.408;13.356;2024-03-06T13:16:11;14.00;;;9.18;;
45762;SDS011;37512;52.408;13.356;2024-03-06T13:20:14;13.13;;;9.95;;
45762;SDS011;37512;52.408;13.356;2024-03-06T13:24:15;12.27;;;9.52;;
45762;SDS011;37512;52.408;13.356;2024-03-06T13:28:17;13.48;;;9.77;;
45762;SDS011;37512;52.408;13.356;2024-03-06T13:32:19;12.05;;;9.40;;
45762;SDS011;37512;52.408;13.356;2024-03-06T13:36:20;15.82;;;10.13;;
45762;SDS011;37512;52.408;13.356;2024-03-06T13:40:24;12.30;;;8.90;;
45762;SDS011;37512;52.408;13.356;2024-03-06T13:44:27;14.38;;;9.75;;
45762;SDS011;37512;52.408;13.356;2024-03-06T13:48:29;16.08;;;10.85;;
45762;SDS011;37512;52.408;13.356;2024-03-06T13:52:31;18.23;;;9.30;;
45762;SDS011;37512;52.408;13.356;2024-03-06T13:56:33;17.27;;;11.00;;
45762;SDS011;37512;52.408;13.356;2024-03-06T14:00:35;17.92;;;10.75;;
45762;SDS011;37512;52.408;13.356;2024-03-06T14:04:37;20.38;;;11.52;;
45762;SDS011;37512;52.408;13.356;2024-03-06T14:08:39;19.63;;;12.43;;
45762;SDS011;37512;52.408;13.356;2024-03-06T14:12:42;19.55;;;11.50;;
45762;SDS011;37512;52.408;13.356;2024-03-06T14:16:44;22.48;;;11.85;;
45762;SDS011;37512;52.408;13.356;2024-03-06T14:20:46;20.38;;;12.90;;
45762;SDS011;37512;52.408;13.356;2024-03-06T14:24:47;27.27;;;16.33;;
45762;SDS011;37512;52.408;13.356;2024-03-06T14:28:49;28.60;;;17.10;;
45762;SDS011;37512;52.408;13.356;2024-03-06T14:32:51;29.33;;;17.30;;
45762;SDS011;37512;52.408;13.356;2024-03-06T14:36:52;25.67;;;15.73;;
45762;SDS011;37512;52.408;13.356;2024-03-06T14:40:54;23.25;;;13.90;;
45762;SDS011;37512;52.408;13.356;2024-03-06T14:44:56;24.38;;;14.05;;
45762;SDS011;37512;52.408;13.356;2024-03-06T14:49:00;32.33;;;12.20;;
45762;SDS011;37512;52.408;13.356;2024-03-06T14:53:03;19.50;;;11.13;;
45762;SDS011;37512;52.408;13.356;2024-03-06T14:57:07;16.40;;;10.00;;
45762;SDS011;37512;52.408;13.356;2024-03-06T15:01:09;16.10;;;9.93;;
45762;SDS011;37512;52.408;13.356;2024-03-06T15:05:11;15.10;;;9.30;;
45762;SDS011;37512;52.408;13.356;2024-03-06T15:09:13;19.45;;;11.32;;
45762;SDS011;37512;52.408;13.356;2024-03-06T15:13:17;22.42;;;13.15;;
45762;SDS011;37512;52.408;13.356;2024-03-06T15:17:20;27.90;;;14.55;;
45762;SDS011;37512;52.408;13.356;2024-03-06T15:21:21;24.98;;;13.80;;
45762;SDS011;37512;52.408;13.356;2024-03-06T15:25:24;34.05;;;15.10;;
45762;SDS011;37512;52.408;13.356;2024-03-06T15:29:26;26.95;;;13.27;;
45762;SDS011;37512;52.408;13.356;2024-03-06T15:33:27;25.23;;;12.77;;
45762;SDS011;37512;52.408;13.356;2024-03-06T15:37:32;53.42;;;15.02;;
45762;SDS011;37512;52.408;13.356;2024-03-06T15:41:34;29.25;;;14.55;;
45762;SDS011;37512;52.408;13.356;2024-03-06T15:45:36;29.48;;;14.15;;
45762;SDS011;37512;52.408;13.356;2024-03-06T15:49:37;28.45;;;14.32;;
45762;SDS011;37512;52.408;13.356;2024-03-06T15:53:39;32.03;;;15.82;;
45762;SDS011;37512;52.408;13.356;2024-03-06T15:57:40;31.13;;;15.48;;
45762;SDS011;37512;52.408;13.356;2024-03-06T16:01:42;26.63;;;14.68;;
45762;SDS011;37512;52.408;13.356;2024-03-06T16:05:44;31.35;;;16.88;;
45762;SDS011;37512;52.408;13.356;2024-03-06T16:09:47;32.80;;;17.27;;
45762;SDS011;37512;52.408;13.356;2024-03-06T16:13:52;33.83;;;17.33;;
45762;SDS011;37512;52.408;13.356;2024-03-06T16:17:53;38.70;;;18.33;;
45762;SDS011;37512;52.408;13.356;2024-03-06T16:21:55;33.47;;;18.27;;
45762;SDS011;37512;52.408;13.356;2024-03-06T16:25:57;31.98;;;17.25;;
45762;SDS011;37512;52.408;13.356;2024-03-06T16:29:58;30.95;;;16.48;;
45762;SDS011;37512;52.408;13.356;2024-03-06T16:34:00;27.92;;;16.30;;
45762;SDS011;37512;52.408;13.356;2024-03-06T16:38:02;29.52;;;15.55;;
45762;SDS011;37512;52.408;13.356;2024-03-06T16:42:03;25.95;;;14.70;;
45762;SDS011;37512;52.408;13.356;2024-03-06T16:46:09;22.58;;;13.68;;
45762;SDS011;37512;52.408;13.356;2024-03-06T16:50:11;22.70;;;13.60;;
45762;SDS011;37512;52.408;13.356;2024-03-06T16:54:13;21.13;;;13.05;;
45762;SDS011;37512;52.408;13.356;2024-03-06T16:58:15;24.77;;;14.07;;
45762;SDS011;37512;52.408;13.356;2024-03-06T17:02:16;20.17;;;13.10;;
45762;SDS011;37512;52.408;13.356;2024-03-06T17:06:18;21.55;;;12.35;;
45762;SDS011;37512;52.408;13.356;2024-03-06T17:10:20;18.38;;;11.77;;
45762;SDS011;37512;52.408;13.356;2024-03-06T17:14:21;21.58;;;12.73;;
45762;SDS011;37512;52.408;13.356;2024-03-06T17:18:23;18.88;;;12.95;;
45762;SDS011;37512;52.408;13.356;2024-03-06T17:22:25;19.75;;;12.25;;
45762;SDS011;37512;52.408;13.356;2024-03-06T17:26:26;20.13;;;12.65;;
45762;SDS011;37512;52.408;13.356;2024-03-06T17:30:28;19.90;;;12.48;;
45762;SDS011;37512;52.408;13.356;2024-03-06T17:34:30;20.58;;;12.40;;
45762;SDS011;37512;52.408;13.356;2024-03-06T17:38:32;20.67;;;12.70;;
45762;SDS011;37512;52.408;13.356;2024-03-06T17:42:35;19.38;;;13.40;;
45762;SDS011;37512;52.408;13.356;2024-03-06T17:46:36;19.55;;;12.18;;
45762;SDS011;37512;52.408;13.356;2024-03-06T17:50:38;19.02;;;13.48;;
45762;SDS011;37512;52.408;13.356;2024-03-06T17:54:39;17.73;;;12.52;;
45762;SDS011;37512;52.408;13.356;2024-03-06T17:58:41;20.45;;;12.80;;
45762;SDS011;37512;52.408;13.356;2024-03-06T18:02:43;17.55;;;12.32;;
45762;SDS011;37512;52.408;13.356;2024-03-06T18:06:46;18.73;;;13.13;;
45762;SDS011;37512;52.408;13.356;2024-03-06T18:10:47;20.17;;;13.00;;
45762;SDS011;37512;52.408;13.356;2024-03-06T18:14:49;20.15;;;13.20;;
45762;SDS011;37512;52.408;13.356;2024-03-06T18:18:51;21.50;;;13.43;;
45762;SDS011;37512;52.408;13.356;2024-03-06T18:22:53;20.45;;;14.13;;
45762;SDS011;37512;52.408;13.356;2024-03-06T18:26:54;21.10;;;13.60;;
45762;SDS011;37512;52.408;13.356;2024-03-06T18:30:56;19.38;;;13.60;;
45762;SDS011;37512;52.408;13.356;2024-03-06T18:35:01;19.48;;;13.50;;
45762;SDS011;37512;52.408;13.356;2024-03-06T18:39:02;20.20;;;13.20;;
45762;SDS011;37512;52.408;13.356;2024-03-06T18:43:04;19.52;;;13.18;;
45762;SDS011;37512;52.408;13.356;2024-03-06T18:47:06;18.88;;;13.02;;
45762;SDS011;37512;52.408;13.356;2024-03-06T18:51:08;17.77;;;13.15;;
45762;SDS011;37512;52.408;13.356;2024-03-06T18:55:10;25.95;;;14.50;;
45762;SDS011;37512;52.408;13.356;2024-03-06T18:59:11;20.10;;;13.68;;
45762;SDS011;37512;52.408;13.356;2024-03-06T19:03:14;20.67;;;13.70;;
45762;SDS011;37512;52.408;13.356;2024-03-06T19:07:16;20.17;;;13.02;;
45762;SDS011;37512;52.408;13.356;2024-03-06T19:11:19;21.23;;;14.27;;
45762;SDS011;37512;52.408;13.356;2024-03-06T19:15:21;21.55;;;14.43;;
45762;SDS011;37512;52.408;13.356;2024-03-06T19:19:23;25.50;;;15.65;;
45762;SDS011;37512;52.408;13.356;2024-03-06T19:23:24;21.60;;;13.93;;
45762;SDS011;37512;52.408;13.356;2024-03-06T19:27:26;21.70;;;13.52;;
45762;SDS011;37512;52.408;13.356;2024-03-06T19:31:29;20.92;;;14.15;;
45762;SDS011;37512;52.408;13.356;2024-03-06T19:35:34;21.52;;;13.55;;
45762;SDS011;37512;52.408;13.356;2024-03-06T19:39:35;22.85;;;14.35;;
45762;SDS011;37512;52.408;13.356;2024-03-06T19:43:37;26.25;;;14.32;;
45762;SDS011;37512;52.408;13.356;2024-03-06T19:47:40;23.25;;;14.98;;
45762;SDS011;37512;52.408;13.356;2024-03-06T19:51:42;33.55;;;18.85;;
45762;SDS011;37512;52.408;13.356;2024-03-06T19:55:45;27.30;;;17.48;;
45762;SDS011;37512;52.408;13.356;2024-03-06T19:59:49;26.58;;;17.23;;
45762;SDS011;37512;52.408;13.356;2024-03-06T20:03:50;28.50;;;18.17;;
45762;SDS011;37512;52.408;13.356;2024-03-06T20:07:52;28.08;;;18.40;;
45762;SDS011;37512;52.408;13.356;2024-03-06T20:11:54;31.88;;;17.90;;
45762;SDS011;37512;52.408;13.356;2024-03-06T20:15:56;32.20;;;18.65;;
45762;SDS011;37512;52.408;13.356;2024-03-06T20:19:57;34.88;;;19.85;;
45762;SDS011;37512;52.408;13.356;2024-03-06T20:23:59;33.58;;;19.85;;
45762;SDS011;37512;52.408;13.356;2024-03-06T20:28:02;34.25;;;19.60;;
45762;SDS011;37512;52.408;13.356;2024-03-06T20:32:06;35.38;;;19.83;;
45762;SDS011;37512;52.408;13.356;2024-03-06T20:36:08;33.50;;;19.85;;
45762;SDS011;37512;52.408;13.356;2024-03-06T20:40:12;39.95;;;21.70;;
45762;SDS011;37512;52.408;13.356;2024-03-06T20:44:14;39.80;;;21.75;;
45762;SDS011;37512;52.408;13.356;2024-03-06T20:48:16;45.55;;;23.83;;
45762;SDS011;37512;52.408;13.356;2024-03-06T20:52:17;51.40;;;27.40;;
45762;SDS011;37512;52.408;13.356;2024-03-06T20:56:19;50.25;;;26.42;;
45762;SDS011;37512;52.408;13.356;2024-03-06T21:00:20;52.40;;;27.00;;
45762;SDS011;37512;52.408;13.356;2024-03-06T21:04:23;52.40;;;28.02;;
45762;SDS011;37512;52.408;13.356;2024-03-06T21:08:26;53.38;;;27.65;;
45762;SDS011;37512;52.408;13.356;2024-03-06T21:12:28;51.72;;;25.98;;
45762;SDS011;37512;52.408;13.356;2024-03-06T21:16:32;44.55;;;25.45;;
45762;SDS011;37512;52.408;13.356;2024-03-06T21:20:33;56.50;;;28.08;;
45762;SDS011;37512;52.408;13.356;2024-03-06T21:24:35;50.00;;;25.52;;
45762;SDS011;37512;52.408;13.356;2024-03-06T21:28:38;50.92;;;27.02;;
45762;SDS011;37512;52.408;13.356;2024-03-06T21:32:40;57.08;;;30.55;;
45762;SDS011;37512;52.408;13.356;2024-03-06T21:36:42;65.40;;;29.80;;
45762;SDS011;37512;52.408;13.356;2024-03-06T21:40:43;57.78;;;30.20;;
45762;SDS011;37512;52.408;13.356;2024-03-06T21:44:45;68.78;;;33.42;;
45762;SDS011;37512;52.408;13.356;2024-03-06T21:48:47;66.75;;;31.85;;
45762;SDS011;37512;52.408;13.356;2024-03-06T21:52:48;63.40;;;32.08;;
45762;SDS011;37512;52.408;13.356;2024-03-06T21:56:50;65.28;;;29.48;;
45762;SDS011;37512;52.408;13.356;2024-03-06T22:00:54;62.83;;;28.20;;
45762;SDS011;37512;52.408;13.356;2024-03-06T22:04:56;66.95;;;31.23;;
45762;SDS011;37512;52.408;13.356;2024-03-06T22:08:58;69.03;;;31.85;;
45762;SDS011;37512;52.408;13.356;2024-03-06T22:13:00;71.38;;;30.17;;
45762;SDS011;37512;52.408;13.356;2024-03-06T22:17:02;68.22;;;30.70;;
45762;SDS011;37512;52.408;13.356;2024-03-06T22:21:04;68.68;;;32.42;;
45762;SDS011;37512;52.408;13.356;2024-03-06T22:25:07;62.28;;;29.83;;
45762;SDS011;37512;52.408;13.356;2024-03-06T22:29:09;68.93;;;33.10;;
45762;SDS011;37512;52.408;13.356;2024-03-06T22:33:11;70.75;;;32.47;;
45762;SDS011;37512;52.408;13.356;2024-03-06T22:37:13;71.30;;;31.65;;
45762;SDS011;37512;52.408;13.356;2024-03-06T22:41:21;73.35;;;32.78;;
45762;SDS011;37512;52.408;13.356;2024-03-06T22:45:24;82.72;;;34.70;;
45762;SDS011;37512;52.408;13.356;2024-03-06T22:49:25;85.95;;;34.25;;
45762;SDS011;37512;52.408;13.356;2024-03-06T22:53:27;86.45;;;34.40;;
45762;SDS011;37512;52.408;13.356;2024-03-06T22:57:28;83.43;;;35.13;;
45762;SDS011;37512;52.408;13.356;2024-03-06T23:01:31;84.40;;;37.35;;
45762;SDS011;37512;52.408;13.356;2024-03-06T23:05:33;102.82;;;37.58;;
45762;SDS011;37512;52.408;13.356;2024-03-06T23:09:34;102.75;;;40.10;;
45762;SDS011;37512;52.408;13.356;2024-03-06T23:13:36;113.10;;;39.15;;
45762;SDS011;37512;52.408;13.356;2024-03-06T23:17:37;108.45;;;38.65;;
45762;SDS011;37512;52.408;13.356;2024-03-06T23:21:39;106.45;;;40.70;;
45762;SDS011;37512;52.408;13.356;2024-03-06T23:25:41;105.68;;;40.60;;
45762;SDS011;37512;52.408;13.356;2024-03-06T23:29:43;97.78;;;38.30;;